createdAt,value
2019-04-28T00:00:55.700Z,4.17
2019-04-28T00:02:04.125Z,3.20
2019-04-28T00:03:10.897Z,2.50
2019-04-28T00:04:18.393Z,3.50
2019-04-28T00:05:25.508Z,3.73
2019-04-28T00:06:32.323Z,4.60
2019-04-28T00:07:41.007Z,3.60
2019-04-28T00:08:47.836Z,3.90
2019-04-28T00:09:54.943Z,3.80
2019-04-28T00:11:01.996Z,2.93
2019-04-28T00:12:11.281Z,4.30
2019-04-28T00:13:17.847Z,4.23
2019-04-28T00:14:24.589Z,3.97
2019-04-28T00:15:31.545Z,3.47
2019-04-28T00:16:38.710Z,3.23
2019-04-28T00:17:45.469Z,3.67
2019-04-28T00:18:52.598Z,4.13
2019-04-28T00:20:01.437Z,4.30
2019-04-28T00:21:15.413Z,4.10
2019-04-28T00:22:32.450Z,4.20
2019-04-28T00:23:56.215Z,4.30
2019-04-28T00:25:11.513Z,3.57
2019-04-28T00:26:37.774Z,3.93
2019-04-28T00:27:44.955Z,4.00
2019-04-28T00:28:51.717Z,4.37
2019-04-28T00:29:58.481Z,3.93
2019-04-28T00:31:05.806Z,3.40
2019-04-28T00:32:13.107Z,3.93
2019-04-28T00:33:19.848Z,4.23
2019-04-28T00:34:26.589Z,3.60
2019-04-28T00:35:35.236Z,4.80
2019-04-28T00:36:43.578Z,4.10
2019-04-28T00:37:51.695Z,4.00
2019-04-28T00:38:59.247Z,3.80
2019-04-28T00:40:10.958Z,3.87
2019-04-28T00:41:17.456Z,3.77
2019-04-28T00:42:24.203Z,4.00
2019-04-28T00:43:31.808Z,4.13
2019-04-28T00:44:39.047Z,3.80
2019-04-28T00:45:45.789Z,4.43
2019-04-28T00:46:52.889Z,3.93
2019-04-28T00:48:00.987Z,4.20
2019-04-28T00:49:08.050Z,4.00
2019-04-28T00:50:15.286Z,4.20
2019-04-28T00:51:22.363Z,4.03
2019-04-28T00:52:29.618Z,3.90
2019-04-28T00:53:36.723Z,4.20
2019-04-28T00:54:43.479Z,4.60
2019-04-28T00:55:51.622Z,4.10
2019-04-28T00:56:58.662Z,4.20
2019-04-28T00:58:05.413Z,4.70
2019-04-28T00:59:12.617Z,4.60
2019-04-28T01:00:23.052Z,3.90
2019-04-28T01:01:42.705Z,3.60
2019-04-28T01:02:50.972Z,4.40
2019-04-28T01:03:59.180Z,4.20
2019-04-28T01:05:07.652Z,4.20
2019-04-28T01:06:14.395Z,4.00
2019-04-28T01:07:21.369Z,4.17
2019-04-28T01:08:28.182Z,4.07
2019-04-28T01:09:35.247Z,4.93
2019-04-28T01:10:42.333Z,3.80
2019-04-28T01:11:49.074Z,4.50
2019-04-28T01:12:56.173Z,4.20
2019-04-28T01:14:02.908Z,4.20
2019-04-28T01:15:17.471Z,4.00
2019-04-28T01:16:34.447Z,4.30
2019-04-28T01:18:03.910Z,4.57
2019-04-28T01:19:20.211Z,4.10
2019-04-28T01:20:29.602Z,4.30
2019-04-28T01:22:10.381Z,4.40
2019-04-28T01:23:17.454Z,3.87
2019-04-28T01:24:24.201Z,4.90
2019-04-28T01:25:31.705Z,4.60
2019-04-28T01:26:39.163Z,4.30
2019-04-28T01:27:54.681Z,3.60
2019-04-28T01:29:01.817Z,4.40
2019-04-28T01:30:14.814Z,4.47
2019-04-28T01:31:44.770Z,4.33
2019-04-28T01:32:57.621Z,4.07
2019-04-28T01:34:23.221Z,5.10
2019-04-28T01:35:30.315Z,4.77
2019-04-28T01:36:39.856Z,4.77
2019-04-28T01:37:46.731Z,7.20
2019-04-28T01:38:53.829Z,5.07
2019-04-28T01:40:00.626Z,5.37
2019-04-28T01:41:09.694Z,4.77
2019-04-28T01:42:16.514Z,4.90
2019-04-28T01:43:23.563Z,4.67
2019-04-28T01:44:30.646Z,4.43
2019-04-28T01:45:37.599Z,5.33
2019-04-28T01:46:44.376Z,5.37
2019-04-28T01:47:51.138Z,4.70
2019-04-28T01:48:59.783Z,5.30
2019-04-28T01:50:07.018Z,5.53
2019-04-28T01:51:14.248Z,4.43
2019-04-28T01:52:20.980Z,4.67
2019-04-28T01:53:27.730Z,4.93
2019-04-28T01:54:34.469Z,4.67
2019-04-28T01:55:41.546Z,4.87
2019-04-28T01:56:50.167Z,5.10
2019-04-28T01:57:57.131Z,4.73
2019-04-28T01:59:03.883Z,4.93
2019-04-28T02:00:22.305Z,5.20
2019-04-28T02:01:21.471Z,5.07
2019-04-28T02:02:30.051Z,5.50
2019-04-28T02:03:37.268Z,4.83
2019-04-28T02:04:44.096Z,5.83
2019-04-28T02:05:51.181Z,4.73
2019-04-28T02:06:59.803Z,4.57
2019-04-28T02:08:07.075Z,4.83
2019-04-28T02:09:13.852Z,5.73
2019-04-28T02:10:21.857Z,4.60
2019-04-28T02:11:29.584Z,5.07
2019-04-28T02:12:36.459Z,4.83
2019-04-28T02:13:43.594Z,5.77
2019-04-28T02:14:52.169Z,5.33
2019-04-28T02:16:00.033Z,5.20
2019-04-28T02:17:07.226Z,5.50
2019-04-28T02:18:14.361Z,4.60
2019-04-28T02:19:21.437Z,5.83
2019-04-28T02:20:30.011Z,5.27
2019-04-28T02:21:59.390Z,5.60
2019-04-28T02:23:14.772Z,5.57
2019-04-28T02:24:31.982Z,5.17
2019-04-28T02:25:39.879Z,5.73
2019-04-28T02:26:46.878Z,6.27
2019-04-28T02:27:56.964Z,5.50
2019-04-28T02:29:02.918Z,5.50
2019-04-28T02:30:11.513Z,5.63
2019-04-28T02:31:24.057Z,5.40
2019-04-28T02:32:30.589Z,4.90
2019-04-28T02:33:36.285Z,4.83
2019-04-28T02:34:43.201Z,6.00
2019-04-28T02:35:51.071Z,5.77
2019-04-28T02:37:01.012Z,5.43
2019-04-28T02:38:06.472Z,5.50
2019-04-28T02:39:13.206Z,6.23
2019-04-28T02:40:20.882Z,5.20
2019-04-28T02:41:30.645Z,5.70
2019-04-28T02:42:36.648Z,5.70
2019-04-28T02:43:43.381Z,5.80
2019-04-28T02:44:50.931Z,6.30
2019-04-28T02:46:00.696Z,5.97
2019-04-28T02:47:10.752Z,7.23
2019-04-28T02:48:21.830Z,5.90
2019-04-28T02:49:47.098Z,5.10
2019-04-28T02:51:05.309Z,5.83
2019-04-28T02:52:22.603Z,6.17
2019-04-28T02:53:33.621Z,6.60
2019-04-28T02:54:40.689Z,6.97
2019-04-28T02:55:47.548Z,6.10
2019-04-28T02:56:54.574Z,7.77
2019-04-28T02:58:01.647Z,7.47
2019-04-28T02:59:10.985Z,7.30
2019-04-28T03:00:21.301Z,7.40
2019-04-28T03:01:27.349Z,6.50
2019-04-28T03:02:34.458Z,7.10
2019-04-28T03:03:41.196Z,6.73
2019-04-28T03:04:50.603Z,6.83
2019-04-28T03:05:57.132Z,7.47
2019-04-28T03:07:04.216Z,6.33
2019-04-28T03:08:11.223Z,7.87
2019-04-28T03:09:20.254Z,7.87
2019-04-28T03:10:26.693Z,7.40
2019-04-28T03:11:33.928Z,7.60
2019-04-28T03:12:41.619Z,7.47
2019-04-28T03:13:50.856Z,8.20
2019-04-28T03:14:57.003Z,8.47
2019-04-28T03:16:03.723Z,8.67
2019-04-28T03:17:11.098Z,7.80
2019-04-28T03:18:18.089Z,8.77
2019-04-28T03:19:25.190Z,8.37
2019-04-28T03:20:32.211Z,8.67
2019-04-28T03:21:41.595Z,8.87
2019-04-28T03:22:50.809Z,9.10
2019-04-28T03:23:56.777Z,8.80
2019-04-28T03:25:05.532Z,8.63
2019-04-28T03:26:37.134Z,9.27
2019-04-28T03:27:55.702Z,9.50
2019-04-28T03:29:10.864Z,7.90
2019-04-28T03:30:35.930Z,9.50
2019-04-28T03:32:16.104Z,9.13
2019-04-28T03:33:11.564Z,8.17
2019-04-28T03:34:14.313Z,9.33
2019-04-28T03:35:22.845Z,10.13
2019-04-28T03:36:32.999Z,8.83
2019-04-28T03:37:41.161Z,8.80
2019-04-28T03:38:47.079Z,8.67
2019-04-28T03:39:53.840Z,8.73
2019-04-28T03:41:01.216Z,9.70
2019-04-28T03:42:11.462Z,9.00
2019-04-28T03:43:17.209Z,8.87
2019-04-28T03:44:24.323Z,10.27
2019-04-28T03:45:36.461Z,8.53
2019-04-28T03:46:51.152Z,9.80
2019-04-28T03:48:00.212Z,9.40
2019-04-28T03:49:06.576Z,8.87
2019-04-28T03:50:13.518Z,9.60
2019-04-28T03:51:21.298Z,8.73
2019-04-28T03:52:28.489Z,9.50
2019-04-28T03:53:35.600Z,8.17
2019-04-28T03:54:42.314Z,9.37
2019-04-28T03:55:51.353Z,9.33
2019-04-28T03:56:57.474Z,9.30
2019-04-28T03:58:04.265Z,9.63
2019-04-28T03:59:11.299Z,7.80
2019-04-28T04:00:18.685Z,9.50
2019-04-28T04:01:25.860Z,8.83
2019-04-28T04:02:32.620Z,9.63
2019-04-28T04:03:41.750Z,10.30
2019-04-28T04:04:48.139Z,9.07
2019-04-28T04:05:54.900Z,9.20
2019-04-28T04:07:01.987Z,8.77
2019-04-28T04:08:10.951Z,10.07
2019-04-28T04:09:17.237Z,8.10
2019-04-28T04:10:34.126Z,8.60
2019-04-28T04:11:45.036Z,8.90
2019-04-28T04:13:01.887Z,9.47
2019-04-28T04:14:24.324Z,9.23
2019-04-28T04:15:50.533Z,8.37
2019-04-28T04:17:05.415Z,8.97
2019-04-28T04:18:16.529Z,8.63
2019-04-28T04:19:23.367Z,10.10
2019-04-28T04:20:31.182Z,9.13
2019-04-28T04:21:40.562Z,8.03
2019-04-28T04:22:46.916Z,8.93
2019-04-28T04:23:54.066Z,9.53
2019-04-28T04:25:01.445Z,8.17
2019-04-28T04:26:11.492Z,8.27
2019-04-28T04:27:17.015Z,9.10
2019-04-28T04:28:23.786Z,8.63
2019-04-28T04:29:31.037Z,8.67
2019-04-28T04:30:40.567Z,8.67
2019-04-28T04:31:46.659Z,9.00
2019-04-28T04:32:53.426Z,9.03
2019-04-28T04:34:02.841Z,9.30
2019-04-28T04:35:10.401Z,7.70
2019-04-28T04:36:17.693Z,8.03
2019-04-28T04:37:24.500Z,8.53
2019-04-28T04:38:31.581Z,7.97
2019-04-28T04:39:40.751Z,7.90
2019-04-28T04:40:47.386Z,9.07
2019-04-28T04:41:54.516Z,9.07
2019-04-28T04:43:02.025Z,7.70
2019-04-28T04:44:11.189Z,8.33
2019-04-28T04:45:20.274Z,7.63
2019-04-28T04:46:27.251Z,8.67
2019-04-28T04:47:34.095Z,8.60
2019-04-28T04:48:41.401Z,8.23
2019-04-28T04:49:50.321Z,8.27
2019-04-28T04:50:56.578Z,7.77
2019-04-28T04:52:03.360Z,7.73
2019-04-28T04:53:10.996Z,7.53
2019-04-28T04:54:20.530Z,9.13
2019-04-28T04:55:27.364Z,8.57
2019-04-28T04:56:34.118Z,8.33
2019-04-28T04:57:41.307Z,8.00
2019-04-28T04:58:50.289Z,8.50
2019-04-28T04:59:56.968Z,7.63
2019-04-28T05:01:30.313Z,8.20
2019-04-28T05:03:03.235Z,7.57
2019-04-28T05:04:34.990Z,7.67
2019-04-28T05:05:42.690Z,7.60
2019-04-28T05:06:49.807Z,7.40
2019-04-28T05:07:56.892Z,8.13
2019-04-28T05:09:05.898Z,7.93
2019-04-28T05:10:12.954Z,7.00
2019-04-28T05:11:20.186Z,6.67
2019-04-28T05:12:27.301Z,7.67
2019-04-28T05:13:34.049Z,8.10
2019-04-28T05:14:41.099Z,7.27
2019-04-28T05:15:47.987Z,7.90
2019-04-28T05:16:55.049Z,7.40
2019-04-28T05:18:01.819Z,7.80
2019-04-28T05:19:10.182Z,6.57
2019-04-28T05:20:17.499Z,7.17
2019-04-28T05:21:25.001Z,6.87
2019-04-28T05:22:34.299Z,6.33
2019-04-28T05:24:09.219Z,6.60
2019-04-28T05:25:37.373Z,6.67
2019-04-28T05:26:47.615Z,7.37
2019-04-28T05:27:54.574Z,7.47
2019-04-28T05:29:01.946Z,7.10
2019-04-28T05:30:10.431Z,7.63
2019-04-28T05:31:23.389Z,8.63
2019-04-28T05:32:39.222Z,6.63
2019-04-28T05:33:35.800Z,8.27
2019-04-28T05:34:46.751Z,7.50
2019-04-28T05:35:54.560Z,7.00
2019-04-28T05:37:00.707Z,7.10
2019-04-28T05:38:07.863Z,7.43
2019-04-28T05:39:15.033Z,7.00
2019-04-28T05:40:22.167Z,6.10
2019-04-28T05:41:29.613Z,6.70
2019-04-28T05:42:36.474Z,6.47
2019-04-28T05:43:43.913Z,7.43
2019-04-28T05:44:51.017Z,6.10
2019-04-28T05:45:57.747Z,6.53
2019-04-28T05:47:04.517Z,7.03
2019-04-28T05:48:11.817Z,5.80
2019-04-28T05:49:52.831Z,6.80
2019-04-28T05:51:04.624Z,6.90
2019-04-28T05:52:30.013Z,6.63
2019-04-28T05:53:44.926Z,5.13
2019-04-28T05:54:56.878Z,5.80
2019-04-28T05:56:10.529Z,6.77
2019-04-28T05:57:22.178Z,6.70
2019-04-28T05:58:45.636Z,5.70
2019-04-28T06:00:06.351Z,5.97
2019-04-28T06:01:32.032Z,5.63
2019-04-28T06:02:55.493Z,5.50
2019-04-28T06:03:50.947Z,5.77
2019-04-28T06:04:59.854Z,6.13
2019-04-28T06:06:06.454Z,6.30
2019-04-28T06:07:20.759Z,6.00
2019-04-28T06:08:45.014Z,6.50
2019-04-28T06:09:53.742Z,8.10
2019-04-28T06:11:02.120Z,5.43
2019-04-28T06:12:11.338Z,5.83
2019-04-28T06:13:20.069Z,5.80
2019-04-28T06:14:26.994Z,5.90
2019-04-28T06:15:33.735Z,5.67
2019-04-28T06:16:40.915Z,6.43
2019-04-28T06:17:47.662Z,5.40
2019-04-28T06:18:54.482Z,5.40
2019-04-28T06:20:01.237Z,4.10
2019-04-28T06:21:08.342Z,5.07
2019-04-28T06:22:17.741Z,5.00
2019-04-28T06:23:23.887Z,5.20
2019-04-28T06:24:30.652Z,5.23
2019-04-28T06:25:37.778Z,5.77
2019-04-28T06:26:44.879Z,5.60
2019-04-28T06:27:51.957Z,5.87
2019-04-28T06:28:58.716Z,5.83
2019-04-28T06:30:06.899Z,6.20
2019-04-28T06:31:13.777Z,5.40
2019-04-28T06:32:20.646Z,5.30
2019-04-28T06:33:28.453Z,4.50
2019-04-28T06:34:35.537Z,4.93
2019-04-28T06:35:42.664Z,6.10
2019-04-28T06:36:49.525Z,4.40
2019-04-28T06:37:56.977Z,5.67
2019-04-28T06:39:04.507Z,4.77
2019-04-28T06:40:11.649Z,4.60
2019-04-28T06:41:19.105Z,4.37
2019-04-28T06:42:26.397Z,4.40
2019-04-28T06:43:33.468Z,4.67
2019-04-28T06:44:40.200Z,4.80
2019-04-28T06:45:47.069Z,4.43
2019-04-28T06:46:54.138Z,4.83
2019-04-28T06:48:01.299Z,3.83
2019-04-28T06:49:08.502Z,4.33
2019-04-28T06:50:15.800Z,5.13
2019-04-28T06:51:22.599Z,5.57
2019-04-28T06:52:29.828Z,4.67
2019-04-28T06:53:36.903Z,4.43
2019-04-28T06:54:43.637Z,4.37
2019-04-28T06:55:50.418Z,4.67
2019-04-28T06:56:57.181Z,4.30
2019-04-28T06:58:04.311Z,4.63
2019-04-28T06:59:11.389Z,5.17
2019-04-28T07:00:19.181Z,5.00
2019-04-28T07:01:26.356Z,4.50
2019-04-28T07:02:33.107Z,4.30
2019-04-28T07:03:40.231Z,5.13
2019-04-28T07:04:46.978Z,5.10
2019-04-28T07:05:53.745Z,5.33
2019-04-28T07:07:00.589Z,4.80
2019-04-28T07:08:07.359Z,4.90
2019-04-28T07:09:14.534Z,5.37
2019-04-28T07:10:21.328Z,4.57
2019-04-28T07:11:28.444Z,4.40
2019-04-28T07:12:35.195Z,4.53
2019-04-28T07:13:42.263Z,3.83
2019-04-28T07:14:49.105Z,3.77
2019-04-28T07:15:55.905Z,4.07
2019-04-28T07:17:03.116Z,4.20
2019-04-28T07:18:10.207Z,4.20
2019-04-28T07:19:17.563Z,4.27
2019-04-28T07:20:43.175Z,3.70
2019-04-28T07:22:08.859Z,3.80
2019-04-28T07:23:16.044Z,3.60
2019-04-28T07:24:22.882Z,3.90
2019-04-28T07:25:29.624Z,3.90
2019-04-28T07:26:36.427Z,3.43
2019-04-28T07:27:43.203Z,4.00
2019-04-28T07:28:50.404Z,4.00
2019-04-28T07:29:57.272Z,4.70
2019-04-28T07:31:04.200Z,3.53
2019-04-28T07:32:11.262Z,3.50
2019-04-28T07:33:18.444Z,3.53
2019-04-28T07:34:25.523Z,3.80
2019-04-28T07:35:32.905Z,3.73
2019-04-28T07:36:40.074Z,3.33
2019-04-28T07:37:47.469Z,4.30
2019-04-28T07:38:54.246Z,3.47
2019-04-28T07:40:01.008Z,3.70
2019-04-28T07:41:08.191Z,3.47
2019-04-28T07:42:15.103Z,3.40
2019-04-28T07:43:21.857Z,3.53
2019-04-28T07:44:28.916Z,2.83
2019-04-28T07:45:36.415Z,3.73
2019-04-28T07:46:43.203Z,4.00
2019-04-28T07:47:50.332Z,3.10
2019-04-28T07:48:57.096Z,3.77
2019-04-28T07:50:04.463Z,4.20
2019-04-28T07:51:11.226Z,3.50
2019-04-28T07:52:24.794Z,3.97
2019-04-28T07:53:39.676Z,3.47
2019-04-28T07:54:46.839Z,4.03
2019-04-28T07:55:53.902Z,3.70
2019-04-28T07:57:00.690Z,3.00
2019-04-28T07:58:07.866Z,2.93
2019-04-28T07:59:14.993Z,3.30
2019-04-28T08:00:27.849Z,4.57
2019-04-28T08:01:34.837Z,3.10
2019-04-28T08:02:42.651Z,3.37
2019-04-28T08:03:50.066Z,3.10
2019-04-28T08:04:57.721Z,3.57
2019-04-28T08:06:05.117Z,3.63
2019-04-28T08:07:11.994Z,4.27
2019-04-28T08:08:19.549Z,3.20
2019-04-28T08:09:26.731Z,3.10
2019-04-28T08:10:33.548Z,3.50
2019-04-28T08:11:40.525Z,3.27
2019-04-28T08:12:49.242Z,3.10
2019-04-28T08:13:56.075Z,2.97
2019-04-28T08:15:03.099Z,2.50
2019-04-28T08:16:10.040Z,3.03
2019-04-28T08:17:17.150Z,2.73
2019-04-28T08:18:24.845Z,2.40
2019-04-28T08:19:32.238Z,2.50
2019-04-28T08:20:39.380Z,3.53
2019-04-28T08:21:46.450Z,2.67
2019-04-28T08:22:53.931Z,2.50
2019-04-28T08:24:00.706Z,2.53
2019-04-28T08:25:08.363Z,3.07
2019-04-28T08:26:15.238Z,3.10
2019-04-28T08:27:22.785Z,2.90
2019-04-28T08:28:29.965Z,2.70
2019-04-28T08:29:36.816Z,2.50
2019-04-28T08:30:43.692Z,2.80
2019-04-28T08:32:00.467Z,2.63
2019-04-28T08:33:20.746Z,2.33
2019-04-28T08:34:27.594Z,2.60
2019-04-28T08:35:34.810Z,2.70
2019-04-28T08:36:42.054Z,2.30
2019-04-28T08:37:50.404Z,2.57
2019-04-28T08:38:57.728Z,2.17
2019-04-28T08:40:05.460Z,2.27
2019-04-28T08:41:13.204Z,2.63
2019-04-28T08:42:20.413Z,2.13
2019-04-28T08:43:27.768Z,2.40
2019-04-28T08:44:35.070Z,2.27
2019-04-28T08:45:42.219Z,2.77
2019-04-28T08:46:50.012Z,2.67
2019-04-28T08:47:58.080Z,3.07
2019-04-28T08:49:05.372Z,2.40
2019-04-28T08:50:13.478Z,2.90
2019-04-28T08:51:20.410Z,3.20
2019-04-28T08:52:27.897Z,2.47
2019-04-28T08:53:34.869Z,2.70
2019-04-28T08:54:41.760Z,2.83
2019-04-28T08:55:49.643Z,3.50
2019-04-28T08:56:56.479Z,2.63
2019-04-28T08:58:03.327Z,3.30
2019-04-28T08:59:10.351Z,3.43
2019-04-28T09:00:18.953Z,3.30
2019-04-28T09:01:25.878Z,3.23
2019-04-28T09:02:33.296Z,2.90
2019-04-28T09:03:40.303Z,2.60
2019-04-28T09:04:47.743Z,2.93
2019-04-28T09:05:54.878Z,3.73
2019-04-28T09:07:02.342Z,3.03
2019-04-28T09:08:09.507Z,3.20
2019-04-28T09:09:17.701Z,2.90
2019-04-28T09:10:24.911Z,2.93
2019-04-28T09:11:32.007Z,2.90
2019-04-28T09:12:38.953Z,3.20
2019-04-28T09:13:46.534Z,3.30
2019-04-28T09:14:53.674Z,3.90
2019-04-28T09:16:01.609Z,3.37
2019-04-28T09:17:08.964Z,3.50
2019-04-28T09:18:16.073Z,4.13
2019-04-28T09:19:23.416Z,4.30
2019-04-28T09:20:30.531Z,4.17
2019-04-28T09:21:37.657Z,3.23
2019-04-28T09:22:44.451Z,3.87
2019-04-28T09:23:51.727Z,3.47
2019-04-28T09:24:58.978Z,2.60
2019-04-28T09:26:06.109Z,3.30
2019-04-28T09:27:13.015Z,3.00
2019-04-28T09:28:20.330Z,2.90
2019-04-28T09:29:27.081Z,3.37
2019-04-28T09:30:34.185Z,3.03
2019-04-28T09:31:40.976Z,2.70
2019-04-28T09:32:48.207Z,2.30
2019-04-28T09:33:54.951Z,2.47
2019-04-28T09:35:01.708Z,3.10
2019-04-28T09:36:08.510Z,2.73
2019-04-28T09:37:15.627Z,3.10
2019-04-28T09:38:22.700Z,2.90
2019-04-28T09:39:52.005Z,3.30
2019-04-28T09:40:58.762Z,2.87
2019-04-28T09:42:39.703Z,3.27
2019-04-28T09:44:11.369Z,3.23
2019-04-28T09:45:21.193Z,3.07
2019-04-28T09:46:33.390Z,3.50
2019-04-28T09:47:40.752Z,3.87
2019-04-28T09:48:47.835Z,3.50
2019-04-28T09:49:54.889Z,3.30
2019-04-28T09:51:01.952Z,3.37
2019-04-28T09:52:09.341Z,3.20
2019-04-28T09:53:16.428Z,3.13
2019-04-28T09:54:23.174Z,2.97
2019-04-28T09:55:29.978Z,2.90
2019-04-28T09:56:37.229Z,3.00
2019-04-28T09:57:43.996Z,2.83
2019-04-28T09:58:50.880Z,4.17
2019-04-28T09:59:58.022Z,10.30
2019-04-28T10:01:05.112Z,5.50
2019-04-28T10:02:12.334Z,4.40
2019-04-28T10:03:19.287Z,4.93
2019-04-28T10:04:26.580Z,3.20
2019-04-28T10:05:33.504Z,2.40
2019-04-28T10:06:40.657Z,2.80
2019-04-28T10:07:47.932Z,3.10
2019-04-28T10:08:55.593Z,3.17
2019-04-28T10:10:02.405Z,3.53
2019-04-28T10:11:09.170Z,3.43
2019-04-28T10:12:26.574Z,3.23
2019-04-28T10:13:25.243Z,3.00
2019-04-28T10:14:33.175Z,2.90
2019-04-28T10:15:39.928Z,3.07
2019-04-28T10:16:47.506Z,2.60
2019-04-28T10:17:54.450Z,2.60
2019-04-28T10:19:01.573Z,3.00
2019-04-28T10:20:09.296Z,2.60
2019-04-28T10:21:16.463Z,2.60
2019-04-28T10:22:23.303Z,2.83
2019-04-28T10:23:30.182Z,3.43
2019-04-28T10:24:37.706Z,2.60
2019-04-28T10:25:44.768Z,2.50
2019-04-28T10:26:51.490Z,2.77
2019-04-28T10:27:58.619Z,2.37
2019-04-28T10:29:05.899Z,2.30
2019-04-28T10:30:13.615Z,2.50
2019-04-28T10:31:20.693Z,2.87
2019-04-28T10:32:27.479Z,2.20
2019-04-28T10:33:34.258Z,2.47
2019-04-28T10:34:54.055Z,2.97
2019-04-28T10:35:49.591Z,2.80
2019-04-28T10:36:56.775Z,3.07
2019-04-28T10:38:03.570Z,3.20
2019-04-28T10:39:31.159Z,2.60
2019-04-28T10:40:47.469Z,2.57
2019-04-28T10:41:54.598Z,3.33
2019-04-28T10:43:01.788Z,3.03
2019-04-28T10:44:09.020Z,3.37
2019-04-28T10:45:19.671Z,3.17
2019-04-28T10:46:26.524Z,3.57
2019-04-28T10:47:33.661Z,3.60
2019-04-28T10:48:40.740Z,3.37
2019-04-28T10:49:47.487Z,3.73
2019-04-28T10:50:54.691Z,3.17
2019-04-28T10:52:01.979Z,3.10
2019-04-28T10:53:08.755Z,3.50
2019-04-28T10:54:15.603Z,3.43
2019-04-28T10:55:22.366Z,3.20
2019-04-28T10:56:29.698Z,3.43
2019-04-28T10:57:36.966Z,4.23
2019-04-28T10:58:45.655Z,3.60
2019-04-28T10:59:52.407Z,4.27
2019-04-28T11:00:59.522Z,3.70
2019-04-28T11:02:06.310Z,3.90
2019-04-28T11:03:13.378Z,3.60
2019-04-28T11:04:38.275Z,4.07
2019-04-28T11:05:45.877Z,3.70
2019-04-28T11:06:52.621Z,4.13
2019-04-28T11:07:59.842Z,4.00
2019-04-28T11:09:30.124Z,4.10
2019-04-28T11:10:27.755Z,3.20
2019-04-28T11:11:34.803Z,4.03
2019-04-28T11:12:41.630Z,3.70
2019-04-28T11:13:48.727Z,3.90
2019-04-28T11:14:55.758Z,3.40
2019-04-28T11:16:02.643Z,3.70
2019-04-28T11:17:09.426Z,3.67
2019-04-28T11:18:17.218Z,4.70
2019-04-28T11:19:24.320Z,3.70
2019-04-28T11:20:31.102Z,4.20
2019-04-28T11:21:37.858Z,4.03
2019-04-28T11:22:44.942Z,4.00
2019-04-28T11:23:52.182Z,4.73
2019-04-28T11:24:58.933Z,3.77
2019-04-28T11:26:05.954Z,3.97
2019-04-28T11:27:12.795Z,3.77
2019-04-28T11:28:19.540Z,3.43
2019-04-28T11:29:26.346Z,4.10
2019-04-28T11:30:33.932Z,3.90
2019-04-28T11:31:40.755Z,4.50
2019-04-28T11:32:59.039Z,4.00
2019-04-28T11:34:23.948Z,3.80
2019-04-28T11:35:31.766Z,3.83
2019-04-28T11:36:38.557Z,3.57
2019-04-28T11:37:45.314Z,3.80
2019-04-28T11:38:52.710Z,3.90
2019-04-28T11:39:59.798Z,3.43
2019-04-28T11:41:07.479Z,3.80
2019-04-28T11:42:14.913Z,3.20
2019-04-28T11:43:22.053Z,4.10
2019-04-28T11:44:28.798Z,3.90
2019-04-28T11:45:35.952Z,4.37
2019-04-28T11:46:42.759Z,3.70
2019-04-28T11:47:49.524Z,4.17
2019-04-28T11:48:56.269Z,3.63
2019-04-28T11:50:03.065Z,3.53
2019-04-28T11:51:09.930Z,4.20
2019-04-28T11:52:17.216Z,4.40
2019-04-28T11:53:24.497Z,3.80
2019-04-28T11:54:31.705Z,4.07
2019-04-28T11:55:38.485Z,4.07
2019-04-28T11:56:45.251Z,4.40
2019-04-28T11:57:52.007Z,4.27
2019-04-28T11:58:58.900Z,3.80
2019-04-28T12:00:12.578Z,3.73
2019-04-28T12:01:20.330Z,4.23
2019-04-28T12:02:27.402Z,3.63
2019-04-28T12:03:34.220Z,4.13
2019-04-28T12:04:41.021Z,3.97
2019-04-28T12:05:48.333Z,4.30
2019-04-28T12:06:55.416Z,4.20
2019-04-28T12:08:02.226Z,4.53
2019-04-28T12:09:40.416Z,4.00
2019-04-28T12:10:53.039Z,4.20
2019-04-28T12:12:00.314Z,4.73
2019-04-28T12:13:17.608Z,5.43
2019-04-28T12:14:43.441Z,5.17
2019-04-28T12:16:09.331Z,4.67
2019-04-28T12:17:31.735Z,5.37
2019-04-28T12:19:09.772Z,18.53
2019-04-28T12:20:19.718Z,10.10
2019-04-28T12:21:26.483Z,5.00
2019-04-28T12:22:33.460Z,3.70
2019-04-28T12:23:40.260Z,3.07
2019-04-28T12:24:47.454Z,2.77
2019-04-28T12:25:55.020Z,2.30
2019-04-28T12:27:01.798Z,2.23
2019-04-28T12:28:08.954Z,2.50
2019-04-28T12:29:15.725Z,2.27
2019-04-28T12:30:23.022Z,2.43
2019-04-28T12:31:30.216Z,3.33
2019-04-28T12:32:37.350Z,2.60
2019-04-28T12:33:44.464Z,2.40
2019-04-28T12:34:51.543Z,2.90
2019-04-28T12:35:58.389Z,3.20
2019-04-28T12:37:05.142Z,2.80
2019-04-28T12:38:12.272Z,2.70
2019-04-28T12:39:19.352Z,2.57
2019-04-28T12:40:26.404Z,2.23
2019-04-28T12:41:33.610Z,2.00
2019-04-28T12:42:40.367Z,2.17
2019-04-28T12:43:47.107Z,2.27
2019-04-28T12:44:53.876Z,2.80
2019-04-28T12:46:00.772Z,2.17
2019-04-28T12:47:07.899Z,1.93
2019-04-28T12:48:14.960Z,1.80
2019-04-28T12:49:27.232Z,1.63
2019-04-28T12:50:39.842Z,2.03
2019-04-28T12:51:47.039Z,2.00
2019-04-28T12:52:54.108Z,1.70
2019-04-28T12:54:04.983Z,2.23
2019-04-28T12:55:12.538Z,1.80
2019-04-28T12:56:19.288Z,2.00
2019-04-28T12:57:26.068Z,2.10
2019-04-28T12:58:32.880Z,2.70
2019-04-28T12:59:45.289Z,2.03
2019-04-28T13:01:15.248Z,1.70
2019-04-28T13:02:50.125Z,2.00
2019-04-28T13:04:09.166Z,1.90
2019-04-28T13:05:16.353Z,1.80
2019-04-28T13:06:23.182Z,1.90
2019-04-28T13:07:29.968Z,1.67
2019-04-28T13:08:36.799Z,1.77
2019-04-28T13:09:44.067Z,1.73
2019-04-28T13:10:50.888Z,2.43
2019-04-28T13:11:57.714Z,2.00
2019-04-28T13:13:04.502Z,1.90
2019-04-28T13:14:11.269Z,1.50
2019-04-28T13:15:18.408Z,1.77
2019-04-28T13:16:25.593Z,1.50
2019-04-28T13:17:32.453Z,1.90
2019-04-28T13:18:39.994Z,2.50
2019-04-28T13:19:46.733Z,2.10
2019-04-28T13:20:53.629Z,2.30
2019-04-28T13:22:00.425Z,2.80
2019-04-28T13:23:07.233Z,3.00
2019-04-28T13:24:14.798Z,2.73
2019-04-28T13:25:21.934Z,2.57
2019-04-28T13:26:28.698Z,2.90
2019-04-28T13:27:35.512Z,3.90
2019-04-28T13:28:42.334Z,3.63
2019-04-28T13:29:49.106Z,7.17
2019-04-28T13:30:55.873Z,3.90
2019-04-28T13:32:02.746Z,2.90
2019-04-28T13:33:09.488Z,2.83
2019-04-28T13:34:18.139Z,3.63
2019-04-28T13:35:25.255Z,3.13
2019-04-28T13:36:33.201Z,3.43
2019-04-28T13:37:39.966Z,2.30
2019-04-28T13:38:46.739Z,2.30
2019-04-28T13:40:03.272Z,2.20
2019-04-28T13:41:10.020Z,1.70
2019-04-28T13:42:16.772Z,2.00
2019-04-28T13:43:23.887Z,1.80
2019-04-28T13:44:52.782Z,1.43
2019-04-28T13:45:59.648Z,1.40
2019-04-28T13:47:07.583Z,1.53
2019-04-28T13:48:14.739Z,1.50
2019-04-28T13:49:23.164Z,1.70
2019-04-28T13:50:36.862Z,1.50
2019-04-28T13:51:43.966Z,1.23
2019-04-28T13:52:51.376Z,1.60
2019-04-28T13:53:58.131Z,1.50
2019-04-28T13:55:16.100Z,1.50
2019-04-28T13:56:22.915Z,1.60
2019-04-28T13:57:30.072Z,1.70
2019-04-28T13:58:39.834Z,1.40
2019-04-28T13:59:47.785Z,1.37
2019-04-28T14:01:16.464Z,1.63
2019-04-28T14:02:41.727Z,1.50
2019-04-28T14:04:10.375Z,2.00
2019-04-28T14:05:39.316Z,1.77
2019-04-28T14:06:49.662Z,1.90
2019-04-28T14:07:56.819Z,2.03
2019-04-28T14:09:03.658Z,1.57
2019-04-28T14:10:11.215Z,1.53
2019-04-28T14:11:17.962Z,1.40
2019-04-28T14:12:24.772Z,1.50
2019-04-28T14:13:31.522Z,2.47
2019-04-28T14:14:38.304Z,2.00
2019-04-28T14:15:48.373Z,2.20
2019-04-28T14:16:53.915Z,2.60
2019-04-28T14:18:00.733Z,2.30
2019-04-28T14:19:07.519Z,2.30
2019-04-28T14:20:14.671Z,2.37
2019-04-28T14:21:21.867Z,2.63
2019-04-28T14:22:28.736Z,3.10
2019-04-28T14:23:35.876Z,2.30
2019-04-28T14:24:42.920Z,2.47
2019-04-28T14:25:50.034Z,3.13
2019-04-28T14:26:56.857Z,2.83
2019-04-28T14:28:03.679Z,2.70
2019-04-28T14:29:10.856Z,2.73
2019-04-28T14:30:18.095Z,3.00
2019-04-28T14:31:25.220Z,3.40
2019-04-28T14:32:32.780Z,3.07
2019-04-28T14:33:39.959Z,3.00
2019-04-28T14:34:47.062Z,2.93
2019-04-28T14:35:53.946Z,2.90
2019-04-28T14:37:01.250Z,3.47
2019-04-28T14:38:08.370Z,2.87
2019-04-28T14:39:15.228Z,3.17
2019-04-28T14:40:22.194Z,2.80
2019-04-28T14:41:29.506Z,2.67
2019-04-28T14:42:36.583Z,2.40
2019-04-28T14:43:43.676Z,2.97
2019-04-28T14:44:50.430Z,3.00
2019-04-28T14:45:57.760Z,3.30
2019-04-28T14:47:05.362Z,3.13
2019-04-28T14:48:12.137Z,3.07
2019-04-28T14:49:19.232Z,3.20
2019-04-28T14:50:26.111Z,3.03
2019-04-28T14:51:33.001Z,3.80
2019-04-28T14:52:39.833Z,2.50
2019-04-28T14:53:46.834Z,2.90
2019-04-28T14:54:53.795Z,3.10
2019-04-28T14:56:00.616Z,2.80
2019-04-28T14:57:07.794Z,3.37
2019-04-28T14:58:14.864Z,3.37
2019-04-28T14:59:22.051Z,2.90
2019-04-28T15:00:34.361Z,3.57
2019-04-28T15:02:09.690Z,3.00
2019-04-28T15:03:17.289Z,2.87
2019-04-28T15:04:31.236Z,2.70
2019-04-28T15:05:53.046Z,2.47
2019-04-28T15:07:04.482Z,2.93
2019-04-28T15:08:30.357Z,2.90
2019-04-28T15:09:54.910Z,3.07
2019-04-28T15:11:19.457Z,2.73
2019-04-28T15:12:26.373Z,3.30
2019-04-28T15:13:33.150Z,3.37
2019-04-28T15:14:39.898Z,3.33
2019-04-28T15:15:47.445Z,3.70
2019-04-28T15:16:54.218Z,3.37
2019-04-28T15:18:01.709Z,3.60
2019-04-28T15:19:08.787Z,3.20
2019-04-28T15:20:15.866Z,3.00